createdAt,value
2023-04-11T00:02:30.125Z,4.20
2023-04-11T00:05:15.677Z,4.03
2023-04-11T00:08:00.981Z,3.83
2023-04-11T00:10:46.120Z,3.73
2023-04-11T00:13:31.154Z,3.83
2023-04-11T00:16:16.598Z,4.00
2023-04-11T00:19:02.108Z,3.87
2023-04-11T00:21:47.448Z,3.75
2023-04-11T00:24:32.698Z,3.78
2023-04-11T00:27:19.449Z,3.88
2023-04-11T00:30:07.182Z,4.18
2023-04-11T00:32:52.858Z,4.20
2023-04-11T00:35:38.027Z,4.05
2023-04-11T00:38:23.307Z,4.30
2023-04-11T00:41:08.764Z,4.25
2023-04-11T00:43:54.265Z,4.07
2023-04-11T00:46:41.612Z,4.50
2023-04-11T00:49:27.136Z,4.53
2023-04-11T00:52:12.362Z,4.30
2023-04-11T00:54:58.296Z,4.90
2023-04-11T00:57:43.896Z,4.30
2023-04-11T01:00:32.355Z,4.60
2023-04-11T01:03:18.594Z,4.32
2023-04-11T01:06:05.974Z,4.83
2023-04-11T01:08:52.048Z,5.00
2023-04-11T01:11:37.560Z,4.40
2023-04-11T01:14:25.449Z,4.90
2023-04-11T01:17:10.807Z,4.93
2023-04-11T01:19:57.358Z,4.65
2023-04-11T01:22:43.087Z,5.03
2023-04-11T01:25:28.402Z,5.00
2023-04-11T01:28:13.600Z,4.37
2023-04-11T01:30:58.685Z,3.83
2023-04-11T01:33:46.676Z,4.40
2023-04-11T01:36:32.064Z,4.37
2023-04-11T01:39:17.466Z,4.07
2023-04-11T01:42:04.277Z,3.40
2023-04-11T01:44:51.593Z,3.77
2023-04-11T01:47:37.190Z,3.87
2023-04-11T01:50:23.491Z,3.70
2023-04-11T01:53:09.103Z,3.80
2023-04-11T01:55:54.919Z,3.53
2023-04-11T01:58:40.448Z,4.20
2023-04-11T02:01:25.700Z,3.80
2023-04-11T02:04:11.080Z,3.80
2023-04-11T02:06:59.554Z,3.30
2023-04-11T02:09:45.131Z,3.57
2023-04-11T02:12:30.727Z,3.17
2023-04-11T02:15:16.313Z,3.40
2023-04-11T02:18:01.709Z,3.50
2023-04-11T02:20:46.771Z,3.27
2023-04-11T02:23:32.130Z,3.50
2023-04-11T02:26:17.481Z,3.10
2023-04-11T02:29:02.674Z,3.27
2023-04-11T02:31:48.745Z,3.30
2023-04-11T02:34:35.818Z,2.73
2023-04-11T02:37:21.258Z,2.97
2023-04-11T02:40:07.424Z,2.90
2023-04-11T02:42:55.298Z,3.00
2023-04-11T02:45:41.298Z,2.50
2023-04-11T02:48:26.832Z,2.10
2023-04-11T02:51:12.373Z,2.50
2023-04-11T02:53:57.575Z,1.90
2023-04-11T02:56:42.873Z,1.90
2023-04-11T02:59:28.507Z,1.70
2023-04-11T03:02:14.046Z,1.70
2023-04-11T03:04:59.347Z,1.77
2023-04-11T03:07:44.629Z,1.73
2023-04-11T03:10:29.954Z,1.77
2023-04-11T03:13:16.976Z,1.60
2023-04-11T03:16:02.219Z,1.70
2023-04-11T03:18:50.214Z,1.57
2023-04-11T03:21:35.417Z,1.90
2023-04-11T03:24:21.469Z,1.50
2023-04-11T03:27:07.569Z,1.40
2023-04-11T03:29:53.194Z,1.40
2023-04-11T03:32:53.483Z,1.40
2023-04-11T03:35:39.199Z,1.30
2023-04-11T03:38:25.369Z,1.30
2023-04-11T03:41:10.663Z,1.27
2023-04-11T03:43:55.849Z,1.20
2023-04-11T03:46:41.304Z,1.03
2023-04-11T03:49:26.942Z,1.37
2023-04-11T03:52:14.846Z,1.10
2023-04-11T03:55:00.204Z,1.17
2023-04-11T03:57:46.716Z,1.00
2023-04-11T04:00:32.438Z,0.80
2023-04-11T04:03:23.889Z,1.00
2023-04-11T04:06:09.815Z,1.10
2023-04-11T04:08:56.049Z,1.10
2023-04-11T04:11:41.742Z,1.13
2023-04-11T04:14:27.390Z,1.20
2023-04-11T04:17:14.819Z,0.90
2023-04-11T04:20:00.409Z,0.90
2023-04-11T04:22:45.902Z,1.00
2023-04-11T04:25:32.119Z,1.10
2023-04-11T04:28:18.637Z,1.00
2023-04-11T04:31:03.947Z,0.77
2023-04-11T04:33:56.277Z,0.80
2023-04-11T04:36:43.731Z,0.70
2023-04-11T04:39:29.419Z,0.83
2023-04-11T04:42:15.403Z,0.90
2023-04-11T04:45:00.692Z,0.70
2023-04-11T04:47:47.401Z,0.70
2023-04-11T04:50:32.561Z,0.80
2023-04-11T04:53:17.810Z,0.90
2023-04-11T04:56:08.207Z,0.90
2023-04-11T04:59:03.526Z,0.80
2023-04-11T05:01:49.964Z,0.90
2023-04-11T05:04:36.362Z,0.80
2023-04-11T05:07:21.922Z,0.80
2023-04-11T05:10:10.407Z,0.90
2023-04-11T05:12:57.693Z,0.83
2023-04-11T05:15:48.029Z,0.90
2023-04-11T05:18:33.093Z,0.90
2023-04-11T05:21:18.811Z,1.03
2023-04-11T05:24:08.093Z,0.80
2023-04-11T05:26:55.486Z,0.90
2023-04-11T05:29:41.046Z,0.90
2023-04-11T05:32:26.744Z,0.77
2023-04-11T05:35:12.233Z,0.90
2023-04-11T05:38:04.714Z,1.00
2023-04-11T05:40:50.490Z,1.43
2023-04-11T05:43:35.740Z,1.57
2023-04-11T05:46:21.426Z,1.07
2023-04-11T05:49:06.894Z,1.10
2023-04-11T05:51:52.418Z,1.00
2023-04-11T05:54:37.600Z,1.00
2023-04-11T05:57:23.234Z,0.83
2023-04-11T06:00:09.115Z,1.03
2023-04-11T06:02:58.325Z,1.00
2023-04-11T06:05:43.901Z,1.10
2023-04-11T06:08:29.138Z,0.90
2023-04-11T06:11:14.344Z,1.30
2023-04-11T06:13:59.728Z,0.90
2023-04-11T06:16:44.959Z,1.20
2023-04-11T06:19:30.433Z,1.00
2023-04-11T06:22:16.013Z,0.95
2023-04-11T06:25:01.605Z,0.98
2023-04-11T06:27:48.131Z,0.90
2023-04-11T06:30:33.142Z,1.10
2023-04-11T06:33:18.522Z,0.80
2023-04-11T06:36:06.071Z,0.85
2023-04-11T06:38:51.465Z,1.20
2023-04-11T06:41:36.974Z,1.10
2023-04-11T06:44:22.293Z,0.90
2023-04-11T06:47:07.745Z,1.10
2023-04-11T06:49:53.965Z,1.10
2023-04-11T06:52:39.129Z,1.00
2023-04-11T06:55:24.294Z,0.93
2023-04-11T06:58:09.631Z,0.88
2023-04-11T07:00:55.734Z,1.20
2023-04-11T07:03:41.043Z,1.02
2023-04-11T07:06:26.531Z,1.00
2023-04-11T07:09:11.986Z,1.30
2023-04-11T07:11:57.077Z,1.08
2023-04-11T07:14:42.186Z,1.58
2023-04-11T07:17:27.499Z,1.33
2023-04-11T07:20:12.851Z,1.10
2023-04-11T07:22:58.216Z,1.13
2023-04-11T07:25:43.383Z,1.02
2023-04-11T07:28:28.918Z,1.20
2023-04-11T07:31:14.525Z,1.30
2023-04-11T07:34:00.112Z,1.50
2023-04-11T07:36:45.788Z,1.30
2023-04-11T07:39:30.969Z,1.23
2023-04-11T07:42:16.402Z,1.42
2023-04-11T07:45:01.940Z,1.50
2023-04-11T07:47:48.127Z,1.35
2023-04-11T07:50:33.480Z,1.50
2023-04-11T07:53:19.130Z,1.35
2023-04-11T07:56:04.782Z,1.60
2023-04-11T07:58:50.218Z,1.80
2023-04-11T08:01:35.329Z,1.75
2023-04-11T08:04:20.958Z,1.90
2023-04-11T08:07:06.607Z,2.00
2023-04-11T08:09:52.148Z,2.13
2023-04-11T08:12:37.454Z,2.00
2023-04-11T08:15:22.995Z,1.98
2023-04-11T08:18:08.346Z,1.40
2023-04-11T08:20:53.741Z,1.48
2023-04-11T08:23:39.734Z,1.48
2023-04-11T08:26:25.233Z,1.70
2023-04-11T08:29:10.669Z,1.17
2023-04-11T08:31:56.192Z,1.67
2023-04-11T08:34:41.822Z,0.90
2023-04-11T08:37:30.773Z,0.60
2023-04-11T08:40:16.208Z,0.80
2023-04-11T08:43:01.761Z,1.07
2023-04-11T08:45:47.578Z,1.00
2023-04-11T08:48:32.688Z,0.80
2023-04-11T08:51:24.829Z,0.80
2023-04-11T08:54:10.536Z,1.00
2023-04-11T08:56:55.730Z,1.00
2023-04-11T08:59:50.195Z,1.20
2023-04-11T09:02:36.046Z,1.93
2023-04-11T09:05:29.278Z,1.20
2023-04-11T09:08:16.378Z,1.10
2023-04-11T09:11:01.575Z,0.90
2023-04-11T09:13:46.779Z,1.00
2023-04-11T09:16:34.086Z,1.30
2023-04-11T09:19:27.330Z,1.20
2023-04-11T09:22:14.259Z,1.27
2023-04-11T09:25:03.039Z,1.33
2023-04-11T09:27:49.364Z,1.02
2023-04-11T09:30:34.990Z,1.30
2023-04-11T09:33:25.531Z,1.05
2023-04-11T09:36:22.959Z,0.90
2023-04-11T09:39:18.052Z,1.10
2023-04-11T09:42:23.168Z,1.23
2023-04-11T09:45:23.525Z,1.10
2023-04-11T09:48:09.156Z,1.00
2023-04-11T09:50:54.860Z,1.30
2023-04-11T09:53:41.465Z,1.25
2023-04-11T09:56:26.945Z,1.20
2023-04-11T09:59:15.037Z,1.27
2023-04-11T10:02:00.689Z,1.30
2023-04-11T10:04:46.410Z,1.23
2023-04-11T10:07:34.029Z,1.20
2023-04-11T10:10:21.240Z,1.10
2023-04-11T10:13:39.027Z,1.10
2023-04-11T10:16:24.515Z,0.82
2023-04-11T10:19:19.113Z,0.90
2023-04-11T10:22:04.831Z,0.90
2023-04-11T10:25:18.826Z,1.02
2023-04-11T10:28:04.187Z,1.10
2023-04-11T10:30:49.612Z,1.00
2023-04-11T10:33:36.042Z,0.95
2023-04-11T10:36:22.761Z,0.85
2023-04-11T10:39:08.354Z,1.00
2023-04-11T10:41:53.399Z,0.80
2023-04-11T10:44:40.071Z,1.13
2023-04-11T10:47:25.687Z,1.20
2023-04-11T10:50:26.285Z,1.30
2023-04-11T10:53:34.321Z,1.40
2023-04-11T10:56:44.412Z,1.50
2023-04-11T10:59:32.503Z,1.30
2023-04-11T11:02:18.392Z,1.30
2023-04-11T11:05:14.956Z,1.45
2023-04-11T11:08:01.427Z,1.30
2023-04-11T11:10:46.828Z,1.50
2023-04-11T11:13:38.886Z,1.30
2023-04-11T11:16:25.938Z,1.23
2023-04-11T11:19:13.993Z,1.45
2023-04-11T11:21:59.411Z,1.10
2023-04-11T11:24:45.108Z,1.25
2023-04-11T11:27:30.254Z,1.38
2023-04-11T11:30:16.401Z,1.23
2023-04-11T11:33:19.726Z,1.20
2023-04-11T11:36:05.601Z,1.35
2023-04-11T11:38:51.044Z,1.00
2023-04-11T11:41:38.392Z,1.17
2023-04-11T11:44:28.748Z,1.15
2023-04-11T11:47:14.412Z,1.08
2023-04-11T11:50:00.471Z,1.35
2023-04-11T11:52:45.810Z,1.25
2023-04-11T11:55:32.294Z,1.10
2023-04-11T11:58:17.442Z,1.10
2023-04-11T12:01:02.829Z,1.30
2023-04-11T12:03:48.538Z,1.30
2023-04-11T12:06:34.063Z,1.42
2023-04-11T12:09:19.819Z,1.50
2023-04-11T12:12:09.050Z,1.40
2023-04-11T12:14:54.887Z,0.90
2023-04-11T12:17:40.671Z,1.30
2023-04-11T12:20:27.271Z,1.23
2023-04-11T12:23:12.670Z,1.10
2023-04-11T12:25:58.132Z,1.40
2023-04-11T12:28:43.745Z,1.30
2023-04-11T12:31:29.087Z,1.38
2023-04-11T12:34:14.786Z,1.42
2023-04-11T12:37:00.022Z,1.35
2023-04-11T12:39:46.187Z,1.25
2023-04-11T12:42:33.274Z,1.23
2023-04-11T12:45:18.298Z,1.45
2023-04-11T12:48:03.679Z,1.20
2023-04-11T12:50:49.288Z,1.20
2023-04-11T12:53:34.711Z,1.00
2023-04-11T12:56:19.972Z,1.20
2023-04-11T12:59:05.135Z,1.00
2023-04-11T13:01:50.204Z,0.98
2023-04-11T13:04:36.124Z,0.95
2023-04-11T13:07:21.820Z,0.90
2023-04-11T13:10:08.373Z,1.00
2023-04-11T13:12:53.388Z,1.00
2023-04-11T13:15:38.653Z,0.77
2023-04-11T13:18:24.288Z,1.23
2023-04-11T13:21:09.828Z,1.05
2023-04-11T13:23:55.295Z,1.08
2023-04-11T13:26:40.476Z,1.33
2023-04-11T13:29:26.125Z,0.93
2023-04-11T13:32:11.693Z,1.17
2023-04-11T13:34:56.853Z,1.05
2023-04-11T13:37:42.186Z,0.85
2023-04-11T13:40:27.251Z,1.00
2023-04-11T13:43:12.755Z,0.80
2023-04-11T13:45:58.214Z,0.90
2023-04-11T13:48:46.527Z,0.95
2023-04-11T13:51:32.614Z,0.80
2023-04-11T13:54:18.096Z,1.10
2023-04-11T13:57:03.759Z,1.05
2023-04-11T13:59:49.168Z,0.80
2023-04-11T14:02:34.524Z,0.57
2023-04-11T14:05:20.053Z,1.08
2023-04-11T14:08:05.842Z,1.13
2023-04-11T14:10:51.847Z,1.00
2023-04-11T14:13:36.986Z,1.88
2023-04-11T14:16:22.439Z,1.40
2023-04-11T14:19:08.038Z,1.20
2023-04-11T14:21:53.420Z,1.00
2023-04-11T14:24:39.400Z,1.00
2023-04-11T14:27:24.768Z,1.08
2023-04-11T14:30:11.886Z,1.05
2023-04-11T14:32:57.506Z,1.67
2023-04-11T14:35:42.567Z,1.10
2023-04-11T14:38:27.655Z,2.10
2023-04-11T14:41:13.380Z,3.63
2023-04-11T14:43:58.817Z,1.63
2023-04-11T14:46:44.423Z,12.20
2023-04-11T14:49:29.795Z,23.23
2023-04-11T14:52:15.003Z,8.45
2023-04-11T14:55:00.193Z,7.30
2023-04-11T14:57:45.505Z,1.27
2023-04-11T15:00:30.831Z,1.00
2023-04-11T15:03:16.404Z,1.00
2023-04-11T15:06:02.776Z,0.80
2023-04-11T15:08:47.978Z,0.70
2023-04-11T15:11:33.842Z,0.88
2023-04-11T15:14:19.517Z,1.00
2023-04-11T15:17:04.662Z,1.07
2023-04-11T15:19:49.829Z,1.10
2023-04-11T15:22:38.090Z,1.25
2023-04-11T15:25:24.450Z,0.90
2023-04-11T15:28:09.777Z,1.37
2023-04-11T15:30:55.071Z,1.20
2023-04-11T15:33:40.533Z,1.40
2023-04-11T15:36:25.842Z,1.60
2023-04-11T15:39:11.571Z,2.88
2023-04-11T15:41:58.017Z,1.10
2023-04-11T15:44:46.051Z,1.75
2023-04-11T15:47:31.291Z,1.20
2023-04-11T15:50:17.246Z,1.55
2023-04-11T15:53:02.761Z,0.70
2023-04-11T15:55:48.161Z,1.35
2023-04-11T15:58:33.911Z,0.95
2023-04-11T16:01:21.027Z,1.30
2023-04-11T16:04:06.484Z,0.82
2023-04-11T16:06:52.529Z,1.30
2023-04-11T16:09:37.952Z,1.00
2023-04-11T16:12:23.850Z,1.10
2023-04-11T16:15:09.076Z,1.10
2023-04-11T16:17:55.478Z,1.10
2023-04-11T16:20:40.530Z,1.10
2023-04-11T16:23:26.133Z,1.08
2023-04-11T16:26:11.585Z,1.10
2023-04-11T16:28:56.913Z,1.10
2023-04-11T16:31:42.179Z,1.00
2023-04-11T16:34:27.734Z,0.90
2023-04-11T16:37:13.245Z,0.88
2023-04-11T16:39:58.560Z,0.93
2023-04-11T16:42:43.712Z,4.07
2023-04-11T16:45:29.184Z,1.20
2023-04-11T16:48:14.303Z,1.27
2023-04-11T16:51:00.939Z,0.95
2023-04-11T16:53:45.943Z,0.82
2023-04-11T16:56:31.581Z,1.00
2023-04-11T16:59:18.106Z,0.90
2023-04-11T17:02:03.458Z,0.88
2023-04-11T17:04:49.070Z,1.10
2023-04-11T17:07:34.277Z,1.10
2023-04-11T17:10:20.947Z,1.10
2023-04-11T17:13:06.528Z,0.90
2023-04-11T17:15:52.054Z,1.10
2023-04-11T17:18:38.202Z,0.95
2023-04-11T17:21:23.374Z,1.15
2023-04-11T17:24:08.592Z,0.80
2023-04-11T17:26:53.945Z,1.25
2023-04-11T17:29:39.231Z,1.13
2023-04-11T17:32:24.691Z,1.30
2023-04-11T17:35:11.026Z,1.10
2023-04-11T17:37:56.317Z,1.30
2023-04-11T17:40:41.824Z,1.40
2023-04-11T17:43:27.125Z,1.40
2023-04-11T17:46:12.702Z,1.30
2023-04-11T17:49:00.091Z,1.38
2023-04-11T17:51:56.271Z,1.57
2023-04-11T17:54:44.378Z,2.97
2023-04-11T17:57:30.816Z,3.17
2023-04-11T18:03:01.807Z,2.17
2023-04-11T18:05:48.164Z,2.50
2023-04-11T18:08:48.860Z,2.30
2023-04-11T18:11:35.240Z,1.70
2023-04-11T18:14:21.915Z,2.40
2023-04-11T18:17:08.885Z,2.23
2023-04-11T18:19:54.054Z,1.67
2023-04-11T18:22:43.261Z,1.60
2023-04-11T18:25:28.560Z,1.60
2023-04-11T18:28:13.699Z,1.53
2023-04-11T18:30:59.121Z,1.30
2023-04-11T18:33:46.766Z,1.40
2023-04-11T18:36:44.783Z,1.60
2023-04-11T18:39:30.472Z,1.63
2023-04-11T18:42:15.933Z,1.60
2023-04-11T18:45:01.646Z,2.20
2023-04-11T18:47:47.566Z,2.17
2023-04-11T18:50:33.179Z,1.93
2023-04-11T18:53:18.919Z,2.03
2023-04-11T18:56:04.070Z,2.40
2023-04-11T18:58:53.538Z,2.60
2023-04-11T19:01:41.269Z,2.57
2023-04-11T19:04:27.382Z,2.60
2023-04-11T19:07:16.906Z,2.50
2023-04-11T19:10:02.355Z,2.27
2023-04-11T19:12:47.901Z,3.20
2023-04-11T19:15:33.792Z,2.57
2023-04-11T19:18:19.633Z,2.00
2023-04-11T19:21:05.446Z,2.00
2023-04-11T19:23:50.953Z,1.73
2023-04-11T19:26:36.797Z,2.10
2023-04-11T19:29:22.171Z,2.20
2023-04-11T19:32:10.734Z,2.03
2023-04-11T19:34:56.347Z,2.20
2023-04-11T19:37:41.573Z,2.20
2023-04-11T19:40:27.487Z,2.40
2023-04-11T19:43:13.413Z,2.40
2023-04-11T19:45:58.962Z,2.30
2023-04-11T19:48:45.200Z,2.10
2023-04-11T19:51:30.955Z,2.30
2023-04-11T19:54:20.729Z,2.87
2023-04-11T19:57:05.904Z,2.20
2023-04-11T19:59:51.590Z,2.40
2023-04-11T20:02:38.117Z,2.40
2023-04-11T20:05:23.462Z,2.53
2023-04-11T20:08:09.275Z,2.23
2023-04-11T20:10:54.738Z,2.20
2023-04-11T20:13:40.363Z,2.30
2023-04-11T20:16:25.762Z,2.13
2023-04-11T20:19:11.109Z,2.20
2023-04-11T20:21:56.617Z,2.30
2023-04-11T20:25:07.567Z,2.57
2023-04-11T20:27:53.353Z,2.00
2023-04-11T20:30:39.034Z,2.00
2023-04-11T20:33:25.556Z,2.40
2023-04-11T20:36:12.803Z,2.47
2023-04-11T20:39:00.782Z,2.43
2023-04-11T20:41:46.104Z,2.73
2023-04-11T20:44:31.834Z,3.10
2023-04-11T20:47:17.050Z,3.60
2023-04-11T20:50:07.814Z,3.77
2023-04-11T20:52:53.070Z,3.40
2023-04-11T20:55:38.877Z,3.40
2023-04-11T20:58:24.058Z,3.20
2023-04-11T21:01:09.602Z,3.43
2023-04-11T21:03:55.197Z,3.47
2023-04-11T21:06:40.857Z,3.33
2023-04-11T21:09:26.367Z,2.97
2023-04-11T21:12:12.102Z,2.57
2023-04-11T21:14:58.262Z,2.87
2023-04-11T21:17:43.826Z,2.50
2023-04-11T21:20:29.361Z,2.40
2023-04-11T21:23:14.541Z,2.43
2023-04-11T21:25:59.926Z,2.43
2023-04-11T21:28:45.371Z,2.50
2023-04-11T21:31:31.602Z,2.57
2023-04-11T21:34:17.095Z,2.93
2023-04-11T21:37:02.587Z,2.60
2023-04-11T21:39:48.041Z,2.77
2023-04-11T21:42:33.361Z,3.00
2023-04-11T21:45:18.740Z,2.93
2023-04-11T21:48:04.017Z,3.10
2023-04-11T21:50:49.433Z,3.30
2023-04-11T21:53:34.736Z,3.13
2023-04-11T21:56:20.317Z,3.10
2023-04-11T21:59:05.648Z,3.13
2023-04-11T22:01:52.580Z,3.07
2023-04-11T22:04:51.324Z,2.93
2023-04-11T22:07:43.636Z,2.70
2023-04-11T22:10:37.816Z,3.40
2023-04-11T22:13:30.364Z,3.13
2023-04-11T22:16:15.732Z,2.87
2023-04-11T22:19:01.740Z,3.00
2023-04-11T22:21:47.067Z,3.30
2023-04-11T22:24:32.418Z,3.20
2023-04-11T22:27:17.538Z,3.50
2023-04-11T22:30:02.821Z,3.40
2023-04-11T22:32:48.187Z,3.40
2023-04-11T22:35:33.358Z,3.50
2023-04-11T22:38:19.076Z,3.63
2023-04-11T22:41:04.908Z,3.40
2023-04-11T22:43:50.210Z,3.17
2023-04-11T22:46:36.532Z,2.90
2023-04-11T22:49:22.065Z,3.30
2023-04-11T22:52:10.966Z,3.03
2023-04-11T22:54:56.010Z,3.10
2023-04-11T22:57:42.687Z,3.00
2023-04-11T23:00:28.688Z,3.40
2023-04-11T23:03:14.309Z,2.90
2023-04-11T23:06:00.118Z,2.70
2023-04-11T23:08:45.575Z,2.67
2023-04-11T23:11:30.769Z,3.20
2023-04-11T23:14:16.389Z,3.00
2023-04-11T23:17:02.894Z,3.00
2023-04-11T23:19:48.582Z,3.00
2023-04-11T23:22:33.902Z,3.13
2023-04-11T23:25:19.739Z,3.40
2023-04-11T23:28:05.329Z,3.03
2023-04-11T23:30:50.499Z,3.20
2023-04-11T23:33:35.800Z,3.20
2023-04-11T23:36:21.246Z,3.60
2023-04-11T23:39:06.671Z,3.13
2023-04-11T23:41:52.402Z,3.43
2023-04-11T23:44:37.412Z,3.67
2023-04-11T23:47:23.071Z,3.50
2023-04-11T23:50:09.125Z,3.60
2023-04-11T23:52:54.493Z,3.30
2023-04-11T23:55:39.639Z,3.27
2023-04-11T23:58:25.419Z,3.30
